首页
METAR-TAF:

METAR-TAF

机场 :

墨爾本機場

墨尔本, 澳大利亚

纬度: 37-40-24S, 经度: 144-50-36E, 海拔: 132米

当前天气观测

该预报发布于32分钟前的11:30 UTC
风速16节,风向北转东北,有时为28节阵风
温度 11°C
湿度 58%
气压 1020 hPa
能见度10公里或以上
1500米以下无云,无积雨云

METAR: YMML 231130Z 02016G28KT CAVOK 11/03 Q1020

时间: 22:02 (12:02 UTC)

预报

该预报发布于56分钟前的11:06 UTC
预报有效从23日的 12点(UTC)到 24日的 18点(UTC)
风速16节,风向,有时为26节阵风
能见度10公里或以上
1500米以下无云,无积雨云
从 23日的 2300点(UTC)
风速20节,风向,有时为42节阵风
能见度10公里或以上
1500米以下无云,无积雨云
从 24日的 0300点(UTC)
风速20节,风向,有时为35节阵风
能见度10公里或以上
1500米以下无云,无积雨云

TAF: YMML 231106Z 2312/2418 01016G26KT CAVOK FM232300 36020G42KT CAVOK FM240300 01020G35KT CAVOK

超过4000个机场的气象观测和天气预报(METAR&TAF报告)。

可查询的气象台以黄色和红色小点在地图上表示。

将鼠标移到小点上方,可查看气象台名称。

然后点击查看天气观测和预报。

如需切换地图:点击带黑十字的绿色按钮放大地图;点击带横线的绿色按钮缩小地图;或者点击绿色箭头查看邻近地区的地图。


METAR-TAF: